Time,TemperatureF,DewpointF,PressureIn,WindDirection,WindDirectionDegrees,WindSpeedMPH,WindSpeedGustMPH,Humidity,HourlyPrecipIn,Conditions,Clouds,dailyrainin,SolarRadiationWatts/m^2,SoftwareType,DateUTC
2013-01-10 00:02:00,64.0,62.0,-100.00,ESE,112,4.0,7.0,94,0.00,,,0.98,0.000000,,2013-01-10 06:02:00,
2013-01-10 00:32:00,63.0,62.0,-100.00,SE,125,4.0,6.0,97,0.03,,,1.01,0.000000,,2013-01-10 06:32:00,
2013-01-10 00:42:00,63.0,62.0,-100.00,SE,125,4.0,6.0,97,0.03,,,1.01,0.000000,,2013-01-10 06:42:00,
2013-01-10 00:52:00,63.0,62.0,-100.00,SE,125,4.0,6.0,97,0.03,,,1.01,0.000000,,2013-01-10 06:52:00,
2013-01-10 01:02:00,63.0,62.0,-100.00,SE,125,4.0,6.0,97,0.03,,,1.01,0.000000,,2013-01-10 07:02:00,
2013-01-10 01:22:00,64.0,63.0,-100.00,South,174,4.0,6.0,98,0.00,,,1.00,0.000000,,2013-01-10 07:22:00,
2013-01-10 01:32:00,64.0,63.0,-100.00,South,174,4.0,6.0,98,0.00,,,1.00,0.000000,,2013-01-10 07:32:00,
2013-01-10 01:42:00,64.0,63.0,-100.00,South,174,4.0,6.0,98,0.00,,,1.00,0.000000,,2013-01-10 07:42:00,
2013-01-10 01:52:00,64.0,63.0,-100.00,South,174,4.0,6.0,98,0.00,,,1.00,0.000000,,2013-01-10 07:52:00,
2013-01-10 02:02:00,64.0,63.0,-100.00,South,174,4.0,6.0,98,0.00,,,1.00,0.000000,,2013-01-10 08:02:00,
2013-01-10 02:33:00,63.0,62.0,-100.00,West,275,2.0,11.0,97,0.00,,,1.00,0.000000,,2013-01-10 08:33:00,
2013-01-10 02:42:00,63.0,62.0,-100.00,West,275,2.0,11.0,97,0.00,,,1.00,0.000000,,2013-01-10 08:42:00,
2013-01-10 02:53:00,63.0,62.0,-100.00,West,275,2.0,11.0,97,0.00,,,1.00,0.000000,,2013-01-10 08:53:00,
2013-01-10 03:02:00,63.0,62.0,-100.00,West,275,2.0,11.0,97,0.00,,,1.00,0.000000,,2013-01-10 09:02:00,
2013-01-10 03:03:00,62.0,61.0,-100.00,SSE,154,3.0,5.0,98,0.01,,,-99.99,0.000000,,2013-01-10 09:03:00,
2013-01-10 03:32:00,62.0,61.0,-100.00,SSE,154,3.0,5.0,98,0.01,,,-99.99,0.000000,,2013-01-10 09:32:00,
2013-01-10 03:43:00,62.0,61.0,-100.00,SSE,154,3.0,5.0,98,0.01,,,-99.99,0.000000,,2013-01-10 09:43:00,
2013-01-10 03:52:00,62.0,61.0,-100.00,SSE,154,3.0,5.0,98,0.01,,,-99.99,0.000000,,2013-01-10 09:52:00,
2013-01-10 04:33:00,62.0,61.0,-100.00,SE,142,6.0,10.0,96,0.00,,,0.95,0.000000,,2013-01-10 10:33:00,
2013-01-10 04:42:00,62.0,61.0,-100.00,SE,142,6.0,10.0,96,0.00,,,0.95,0.000000,,2013-01-10 10:42:00,
2013-01-10 04:52:00,62.0,61.0,-100.00,SE,142,6.0,10.0,96,0.00,,,0.95,0.000000,,2013-01-10 10:52:00,
2013-01-10 05:02:00,62.0,61.0,-100.00,SE,142,6.0,10.0,96,0.00,,,0.95,0.000000,,2013-01-10 11:02:00,
2013-01-10 05:23:00,62.0,60.0,-100.00,SSW,203,3.0,12.0,94,0.00,,,0.86,0.000000,,2013-01-10 11:23:00,
2013-01-10 05:33:00,62.0,60.0,-100.00,SSW,203,3.0,12.0,94,0.00,,,0.86,0.000000,,2013-01-10 11:33:00,
2013-01-10 05:43:00,62.0,60.0,-100.00,SSW,203,3.0,12.0,94,0.00,,,0.86,0.000000,,2013-01-10 11:43:00,
2013-01-10 05:53:00,62.0,60.0,-100.00,SSW,203,3.0,12.0,94,0.00,,,0.86,0.000000,,2013-01-10 11:53:00,
2013-01-10 06:02:00,62.0,60.0,-100.00,SSW,203,3.0,12.0,94,0.00,,,0.86,0.000000,,2013-01-10 12:02:00,
2013-01-10 08:03:00,59.0,58.0,-100.00,East,85,0.0,3.0,98,-99.99,,,0.81,7.000000,,2013-01-10 14:03:00,
2013-01-10 08:23:00,59.0,58.0,-100.00,East,85,0.0,3.0,98,-99.99,,,0.81,7.000000,,2013-01-10 14:23:00,
2013-01-10 08:33:00,59.0,58.0,-100.00,East,85,0.0,3.0,98,-99.99,,,0.81,7.000000,,2013-01-10 14:33:00,
2013-01-10 08:43:00,59.0,58.0,-100.00,East,85,0.0,3.0,98,-99.99,,,0.81,7.000000,,2013-01-10 14:43:00,
2013-01-10 08:53:00,59.0,58.0,-100.00,East,85,0.0,3.0,98,-99.99,,,0.81,7.000000,,2013-01-10 14:53:00,
2013-01-10 09:33:00,60.0,59.0,-100.00,SW,214,2.0,4.0,98,0.00,,,0.81,61.000000,,2013-01-10 15:33:00,
2013-01-10 09:43:00,60.0,59.0,-100.00,SW,214,2.0,4.0,98,0.00,,,0.81,61.000000,,2013-01-10 15:43:00,
2013-01-10 09:53:00,60.0,59.0,-100.00,SW,214,2.0,4.0,98,0.00,,,0.81,61.000000,,2013-01-10 15:53:00,
2013-01-10 10:02:00,60.0,59.0,-100.00,SW,214,2.0,4.0,98,0.00,,,0.81,61.000000,,2013-01-10 16:02:00,
2013-01-10 10:03:00,62.0,61.0,-100.00,SSW,198,3.0,6.0,97,0.00,,,0.80,166.000000,,2013-01-10 16:03:00,
2013-01-10 10:33:00,62.0,61.0,-100.00,SSW,198,3.0,6.0,97,0.00,,,0.80,166.000000,,2013-01-10 16:33:00,
2013-01-10 10:43:00,62.0,61.0,-100.00,SSW,198,3.0,6.0,97,0.00,,,0.80,166.000000,,2013-01-10 16:43:00,
2013-01-10 10:53:00,62.0,61.0,-100.00,SSW,198,3.0,6.0,97,0.00,,,0.80,166.000000,,2013-01-10 16:53:00,
2013-01-10 11:03:00,65.0,60.0,-100.00,SW,218,4.0,8.0,83,0.00,,,0.80,334.000000,,2013-01-10 17:03:00,
2013-01-10 11:33:00,65.0,60.0,-100.00,SW,218,4.0,8.0,83,0.00,,,0.80,334.000000,,2013-01-10 17:33:00,
2013-01-10 11:43:00,65.0,60.0,-100.00,SW,218,4.0,8.0,83,0.00,,,0.80,334.000000,,2013-01-10 17:43:00,
2013-01-10 11:53:00,65.0,60.0,-100.00,SW,218,4.0,8.0,83,0.00,,,0.80,334.000000,,2013-01-10 17:53:00,
2013-01-10 12:03:00,66.0,54.0,-100.00,SSW,204,5.0,13.0,66,0.00,,,0.80,525.000000,,2013-01-10 18:03:00,
2013-01-10 12:23:00,66.0,54.0,-100.00,SSW,204,5.0,13.0,66,0.00,,,0.80,525.000000,,2013-01-10 18:23:00,
2013-01-10 12:33:00,66.0,54.0,-100.00,SSW,204,5.0,13.0,66,0.00,,,0.80,525.000000,,2013-01-10 18:33:00,
2013-01-10 12:43:00,66.0,54.0,-100.00,SSW,204,5.0,13.0,66,0.00,,,0.80,525.000000,,2013-01-10 18:43:00,
2013-01-10 12:53:00,66.0,54.0,-100.00,SSW,204,5.0,13.0,66,0.00,,,0.80,525.000000,,2013-01-10 18:53:00,
2013-01-10 13:03:00,67.0,53.0,-100.00,SSW,213,8.0,14.0,60,0.00,,,-99.99,601.000000,,2013-01-10 19:03:00,
2013-01-10 13:33:00,67.0,53.0,-100.00,SSW,213,8.0,14.0,60,0.00,,,-99.99,601.000000,,2013-01-10 19:33:00,
2013-01-10 13:43:00,67.0,53.0,-100.00,SSW,213,8.0,14.0,60,0.00,,,-99.99,601.000000,,2013-01-10 19:43:00,
2013-01-10 13:53:00,67.0,53.0,-100.00,SSW,213,8.0,14.0,60,0.00,,,-99.99,601.000000,,2013-01-10 19:53:00,
2013-01-10 14:03:00,69.0,52.0,-100.00,SSW,201,7.0,17.0,54,0.00,,,0.67,623.000000,,2013-01-10 20:03:00,
2013-01-10 14:24:00,69.0,52.0,-100.00,SSW,201,7.0,17.0,54,0.00,,,0.67,623.000000,,2013-01-10 20:24:00,
2013-01-10 14:33:00,69.0,52.0,-100.00,SSW,201,7.0,17.0,54,0.00,,,0.67,623.000000,,2013-01-10 20:33:00,
2013-01-10 14:43:00,69.0,52.0,-100.00,SSW,201,7.0,17.0,54,0.00,,,0.67,623.000000,,2013-01-10 20:43:00,
2013-01-10 14:53:00,69.0,52.0,-100.00,SSW,201,7.0,17.0,54,0.00,,,0.67,623.000000,,2013-01-10 20:53:00,
2013-01-10 15:03:00,69.0,46.0,-100.00,SSW,197,6.0,16.0,44,0.00,,,0.56,555.000000,,2013-01-10 21:03:00,
2013-01-10 15:33:00,69.0,46.0,-100.00,SSW,197,6.0,16.0,44,0.00,,,0.56,555.000000,,2013-01-10 21:33:00,
2013-01-10 15:43:00,69.0,46.0,-100.00,SSW,197,6.0,16.0,44,0.00,,,0.56,555.000000,,2013-01-10 21:43:00,
2013-01-10 15:53:00,69.0,46.0,-100.00,SSW,197,6.0,16.0,44,0.00,,,0.56,555.000000,,2013-01-10 21:53:00,
2013-01-10 16:27:00,69.0,46.0,-100.00,South,189,7.0,16.0,43,0.00,,,0.26,393.000000,,2013-01-10 22:27:00,
2013-01-10 16:34:00,69.0,46.0,-100.00,South,189,7.0,16.0,43,0.00,,,0.26,393.000000,,2013-01-10 22:34:00,
2013-01-10 16:44:00,69.0,46.0,-100.00,South,189,7.0,16.0,43,0.00,,,0.26,393.000000,,2013-01-10 22:44:00,
2013-01-10 17:02:00,69.0,46.0,-100.00,South,189,7.0,16.0,43,0.00,,,0.26,393.000000,,2013-01-10 23:02:00,
2013-01-10 17:33:00,65.0,43.0,-100.00,SSW,209,6.0,14.0,45,0.00,,,0.04,130.000000,,2013-01-10 23:33:00,
2013-01-10 17:43:00,65.0,43.0,-100.00,SSW,209,6.0,14.0,45,0.00,,,0.04,130.000000,,2013-01-10 23:43:00,
2013-01-10 17:53:00,65.0,43.0,-100.00,SSW,209,6.0,14.0,45,0.00,,,0.04,130.000000,,2013-01-10 23:53:00,
2013-01-10 18:02:00,65.0,43.0,-100.00,SSW,209,6.0,14.0,45,0.00,,,0.04,130.000000,,2013-01-11 00:02:00,
2013-01-10 18:03:00,61.0,46.0,-100.00,South,184,2.0,12.0,57,0.00,,,0.04,7.000000,,2013-01-11 00:03:00,
2013-01-10 18:33:00,61.0,46.0,-100.00,South,184,2.0,12.0,57,0.00,,,0.04,7.000000,,2013-01-11 00:33:00,
2013-01-10 18:43:00,61.0,46.0,-100.00,South,184,2.0,12.0,57,0.00,,,0.04,7.000000,,2013-01-11 00:43:00,
2013-01-10 18:53:00,61.0,46.0,-100.00,South,184,2.0,12.0,57,0.00,,,0.04,7.000000,,2013-01-11 00:53:00,
2013-01-10 19:03:00,56.0,47.0,-100.00,South,180,1.0,4.0,71,0.00,,,0.04,0.000000,,2013-01-11 01:03:00,
2013-01-10 19:34:00,56.0,47.0,-100.00,South,180,1.0,4.0,71,0.00,,,0.04,0.000000,,2013-01-11 01:34:00,
2013-01-10 19:43:00,56.0,47.0,-100.00,South,180,1.0,4.0,71,0.00,,,0.04,0.000000,,2013-01-11 01:43:00,
2013-01-10 19:53:00,56.0,47.0,-100.00,South,180,1.0,4.0,71,0.00,,,0.04,0.000000,,2013-01-11 01:53:00,
2013-01-10 20:24:00,55.0,47.0,-100.00,NW,306,1.0,5.0,75,0.00,,,0.04,0.000000,,2013-01-11 02:24:00,
2013-01-10 20:33:00,55.0,47.0,-100.00,NW,306,1.0,5.0,75,0.00,,,0.04,0.000000,,2013-01-11 02:33:00,
2013-01-10 20:43:00,55.0,47.0,-100.00,NW,306,1.0,5.0,75,0.00,,,0.04,0.000000,,2013-01-11 02:43:00,
2013-01-10 20:54:00,55.0,47.0,-100.00,NW,306,1.0,5.0,75,0.00,,,0.04,0.000000,,2013-01-11 02:54:00,
2013-01-10 21:02:00,55.0,47.0,-100.00,NW,306,1.0,5.0,75,0.00,,,0.04,0.000000,,2013-01-11 03:02:00,
2013-01-10 21:33:00,50.0,47.0,-100.00,SSW,192,0.0,4.0,91,0.00,,,0.04,0.000000,,2013-01-11 03:33:00,
2013-01-10 21:43:00,50.0,47.0,-100.00,SSW,192,0.0,4.0,91,0.00,,,0.04,0.000000,,2013-01-11 03:43:00,
2013-01-10 21:53:00,50.0,47.0,-100.00,SSW,192,0.0,4.0,91,0.00,,,0.04,0.000000,,2013-01-11 03:53:00,
2013-01-10 22:02:00,50.0,47.0,-100.00,SSW,192,0.0,4.0,91,0.00,,,0.04,0.000000,,2013-01-11 04:02:00,
2013-01-10 22:03:00,48.0,46.0,-100.00,SE,144,0.0,0.0,94,0.00,,,0.04,0.000000,,2013-01-11 04:03:00,
2013-01-10 22:33:00,48.0,46.0,-100.00,SE,144,0.0,0.0,94,0.00,,,0.04,0.000000,,2013-01-11 04:33:00,
2013-01-10 22:43:00,48.0,46.0,-100.00,SE,144,0.0,0.0,94,0.00,,,0.04,0.000000,,2013-01-11 04:43:00,
2013-01-10 22:53:00,48.0,46.0,-100.00,SE,144,0.0,0.0,94,0.00,,,0.04,0.000000,,2013-01-11 04:53:00,
2013-01-10 23:03:00,47.0,46.0,-100.00,ESE,122,0.0,0.0,96,0.00,,,0.04,0.000000,,2013-01-11 05:03:00,
2013-01-10 23:33:00,47.0,46.0,-100.00,ESE,122,0.0,0.0,96,0.00,,,0.04,0.000000,,2013-01-11 05:33:00,
2013-01-10 23:43:00,47.0,46.0,-100.00,ESE,122,0.0,0.0,96,0.00,,,0.04,0.000000,,2013-01-11 05:43:00,
2013-01-10 23:53:00,47.0,46.0,-100.00,ESE,122,0.0,0.0,96,0.00,,,0.04,0.000000,,2013-01-11 05:53:00,